sensor_id;sensor_type;location;lat;lon;timestamp;P1;durP1;ratioP1;P2;durP2;ratioP2
13834;SDS011;6988;52.614;13.500;2022-12-18T00:03:22;62.60;;;23.07;;
13834;SDS011;6988;52.614;13.500;2022-12-18T00:08:14;56.87;;;23.93;;
13834;SDS011;6988;52.614;13.500;2022-12-18T00:13:07;59.00;;;24.83;;
13834;SDS011;6988;52.614;13.500;2022-12-18T00:17:59;61.47;;;25.60;;
13834;SDS011;6988;52.614;13.500;2022-12-18T00:22:52;64.23;;;25.57;;
13834;SDS011;6988;52.614;13.500;2022-12-18T00:27:44;47.90;;;22.17;;
13834;SDS011;6988;52.614;13.500;2022-12-18T00:32:37;58.40;;;20.27;;
13834;SDS011;6988;52.614;13.500;2022-12-18T00:37:29;51.03;;;21.47;;
13834;SDS011;6988;52.614;13.500;2022-12-18T00:42:22;54.27;;;21.53;;
13834;SDS011;6988;52.614;13.500;2022-12-18T00:47:32;54.13;;;22.53;;
13834;SDS011;6988;52.614;13.500;2022-12-18T00:52:24;51.63;;;20.87;;
13834;SDS011;6988;52.614;13.500;2022-12-18T00:57:16;49.30;;;21.27;;
13834;SDS011;6988;52.614;13.500;2022-12-18T01:02:09;45.63;;;19.80;;
13834;SDS011;6988;52.614;13.500;2022-12-18T01:07:04;45.67;;;20.63;;
13834;SDS011;6988;52.614;13.500;2022-12-18T01:11:58;50.60;;;21.93;;
13834;SDS011;6988;52.614;13.500;2022-12-18T01:16:50;57.87;;;24.20;;
13834;SDS011;6988;52.614;13.500;2022-12-18T01:21:44;50.93;;;21.47;;
13834;SDS011;6988;52.614;13.500;2022-12-18T01:26:37;60.30;;;32.33;;
13834;SDS011;6988;52.614;13.500;2022-12-18T01:31:30;67.93;;;27.17;;
13834;SDS011;6988;52.614;13.500;2022-12-18T01:36:27;59.03;;;25.50;;
13834;SDS011;6988;52.614;13.500;2022-12-18T01:41:24;62.23;;;24.30;;
13834;SDS011;6988;52.614;13.500;2022-12-18T01:46:39;54.10;;;21.73;;
13834;SDS011;6988;52.614;13.500;2022-12-18T01:51:31;48.90;;;20.30;;
13834;SDS011;6988;52.614;13.500;2022-12-18T01:56:25;58.10;;;23.63;;
13834;SDS011;6988;52.614;13.500;2022-12-18T02:01:17;53.60;;;22.77;;
13834;SDS011;6988;52.614;13.500;2022-12-18T02:06:13;60.53;;;24.60;;
13834;SDS011;6988;52.614;13.500;2022-12-18T02:11:17;70.67;;;28.27;;
13834;SDS011;6988;52.614;13.500;2022-12-18T02:16:24;62.43;;;25.17;;
13834;SDS011;6988;52.614;13.500;2022-12-18T02:21:27;64.37;;;26.63;;
13834;SDS011;6988;52.614;13.500;2022-12-18T02:26:33;55.83;;;24.70;;
13834;SDS011;6988;52.614;13.500;2022-12-18T02:31:30;58.70;;;25.70;;
13834;SDS011;6988;52.614;13.500;2022-12-18T02:36:29;54.83;;;24.10;;
13834;SDS011;6988;52.614;13.500;2022-12-18T02:41:24;61.47;;;24.53;;
13834;SDS011;6988;52.614;13.500;2022-12-18T02:51:38;69.10;;;26.13;;
13834;SDS011;6988;52.614;13.500;2022-12-18T02:56:42;62.67;;;25.00;;
13834;SDS011;6988;52.614;13.500;2022-12-18T03:01:47;61.10;;;25.23;;
13834;SDS011;6988;52.614;13.500;2022-12-18T03:06:48;68.20;;;26.80;;
13834;SDS011;6988;52.614;13.500;2022-12-18T03:11:46;76.07;;;28.17;;
13834;SDS011;6988;52.614;13.500;2022-12-18T03:17:05;81.87;;;41.27;;
13834;SDS011;6988;52.614;13.500;2022-12-18T03:22:07;74.07;;;28.90;;
13834;SDS011;6988;52.614;13.500;2022-12-18T03:27:08;70.37;;;27.97;;
13834;SDS011;6988;52.614;13.500;2022-12-18T03:32:11;75.40;;;27.90;;
13834;SDS011;6988;52.614;13.500;2022-12-18T03:37:10;75.13;;;29.17;;
13834;SDS011;6988;52.614;13.500;2022-12-18T03:42:04;63.77;;;26.67;;
13834;SDS011;6988;52.614;13.500;2022-12-18T03:47:13;58.40;;;24.90;;
13834;SDS011;6988;52.614;13.500;2022-12-18T03:52:13;61.97;;;25.03;;
13834;SDS011;6988;52.614;13.500;2022-12-18T03:57:17;57.03;;;23.40;;
13834;SDS011;6988;52.614;13.500;2022-12-18T04:02:16;57.20;;;22.77;;
13834;SDS011;6988;52.614;13.500;2022-12-18T04:07:10;59.37;;;24.27;;
13834;SDS011;6988;52.614;13.500;2022-12-18T04:12:08;54.57;;;22.80;;
13834;SDS011;6988;52.614;13.500;2022-12-18T04:17:00;57.57;;;23.17;;
13834;SDS011;6988;52.614;13.500;2022-12-18T04:21:57;49.13;;;21.93;;
13834;SDS011;6988;52.614;13.500;2022-12-18T04:26:49;52.00;;;21.13;;
13834;SDS011;6988;52.614;13.500;2022-12-18T04:31:47;49.47;;;21.10;;
13834;SDS011;6988;52.614;13.500;2022-12-18T04:36:40;48.67;;;21.10;;
13834;SDS011;6988;52.614;13.500;2022-12-18T04:41:33;46.90;;;20.17;;
13834;SDS011;6988;52.614;13.500;2022-12-18T04:46:25;49.53;;;20.77;;
13834;SDS011;6988;52.614;13.500;2022-12-18T04:51:17;49.47;;;20.87;;
13834;SDS011;6988;52.614;13.500;2022-12-18T04:56:10;47.50;;;21.40;;
13834;SDS011;6988;52.614;13.500;2022-12-18T05:01:05;56.00;;;22.00;;
13834;SDS011;6988;52.614;13.500;2022-12-18T05:05:58;49.30;;;21.67;;
13834;SDS011;6988;52.614;13.500;2022-12-18T05:10:57;49.53;;;19.70;;
13834;SDS011;6988;52.614;13.500;2022-12-18T05:15:51;48.67;;;19.07;;
13834;SDS011;6988;52.614;13.500;2022-12-18T05:20:45;46.23;;;19.70;;
13834;SDS011;6988;52.614;13.500;2022-12-18T05:25:37;48.20;;;18.37;;
13834;SDS011;6988;52.614;13.500;2022-12-18T05:30:29;46.17;;;20.53;;
13834;SDS011;6988;52.614;13.500;2022-12-18T05:35:21;48.23;;;19.53;;
13834;SDS011;6988;52.614;13.500;2022-12-18T05:40:14;46.87;;;20.27;;
13834;SDS011;6988;52.614;13.500;2022-12-18T05:45:07;57.37;;;21.27;;
13834;SDS011;6988;52.614;13.500;2022-12-18T05:50:00;50.23;;;21.40;;
13834;SDS011;6988;52.614;13.500;2022-12-18T05:54:52;51.57;;;21.43;;
13834;SDS011;6988;52.614;13.500;2022-12-18T05:59:45;52.07;;;20.40;;
13834;SDS011;6988;52.614;13.500;2022-12-18T06:04:37;51.30;;;20.17;;
13834;SDS011;6988;52.614;13.500;2022-12-18T06:09:28;48.33;;;19.13;;
13834;SDS011;6988;52.614;13.500;2022-12-18T06:14:20;52.07;;;20.47;;
13834;SDS011;6988;52.614;13.500;2022-12-18T06:19:15;55.30;;;21.17;;
13834;SDS011;6988;52.614;13.500;2022-12-18T06:24:07;57.40;;;21.77;;
13834;SDS011;6988;52.614;13.500;2022-12-18T06:28:59;55.13;;;21.23;;
13834;SDS011;6988;52.614;13.500;2022-12-18T06:33:51;48.13;;;19.57;;
13834;SDS011;6988;52.614;13.500;2022-12-18T06:38:45;53.27;;;20.47;;
13834;SDS011;6988;52.614;13.500;2022-12-18T06:43:37;60.47;;;21.57;;
13834;SDS011;6988;52.614;13.500;2022-12-18T06:48:28;52.43;;;21.33;;
13834;SDS011;6988;52.614;13.500;2022-12-18T06:53:20;58.47;;;22.30;;
13834;SDS011;6988;52.614;13.500;2022-12-18T06:58:14;65.73;;;22.97;;
13834;SDS011;6988;52.614;13.500;2022-12-18T07:03:06;64.77;;;22.93;;
13834;SDS011;6988;52.614;13.500;2022-12-18T07:07:58;60.13;;;21.57;;
13834;SDS011;6988;52.614;13.500;2022-12-18T07:12:50;65.53;;;22.37;;
13834;SDS011;6988;52.614;13.500;2022-12-18T07:17:43;69.33;;;23.43;;
13834;SDS011;6988;52.614;13.500;2022-12-18T07:22:35;68.70;;;24.07;;
13834;SDS011;6988;52.614;13.500;2022-12-18T07:27:27;63.10;;;22.37;;
13834;SDS011;6988;52.614;13.500;2022-12-18T07:32:19;61.37;;;23.50;;
13834;SDS011;6988;52.614;13.500;2022-12-18T07:37:12;65.20;;;22.90;;
13834;SDS011;6988;52.614;13.500;2022-12-18T07:42:04;60.53;;;23.43;;
13834;SDS011;6988;52.614;13.500;2022-12-18T07:47:28;59.60;;;21.63;;
13834;SDS011;6988;52.614;13.500;2022-12-18T07:52:24;56.83;;;20.97;;
13834;SDS011;6988;52.614;13.500;2022-12-18T07:57:16;58.90;;;22.33;;
13834;SDS011;6988;52.614;13.500;2022-12-18T08:02:08;56.43;;;21.97;;
13834;SDS011;6988;52.614;13.500;2022-12-18T08:07:00;47.90;;;20.13;;
13834;SDS011;6988;52.614;13.500;2022-12-18T08:11:53;52.13;;;21.17;;
13834;SDS011;6988;52.614;13.500;2022-12-18T08:16:45;56.77;;;21.37;;
13834;SDS011;6988;52.614;13.500;2022-12-18T08:21:37;46.13;;;19.60;;
13834;SDS011;6988;52.614;13.500;2022-12-18T08:26:32;45.37;;;19.43;;
13834;SDS011;6988;52.614;13.500;2022-12-18T08:31:25;50.37;;;21.07;;
13834;SDS011;6988;52.614;13.500;2022-12-18T08:36:20;53.17;;;21.00;;
13834;SDS011;6988;52.614;13.500;2022-12-18T08:41:14;50.83;;;20.43;;
13834;SDS011;6988;52.614;13.500;2022-12-18T08:46:08;50.03;;;20.50;;
13834;SDS011;6988;52.614;13.500;2022-12-18T08:51:01;51.53;;;20.37;;
13834;SDS011;6988;52.614;13.500;2022-12-18T08:55:53;49.37;;;20.87;;
13834;SDS011;6988;52.614;13.500;2022-12-18T09:00:47;51.83;;;21.33;;
13834;SDS011;6988;52.614;13.500;2022-12-18T09:05:39;47.27;;;20.87;;
13834;SDS011;6988;52.614;13.500;2022-12-18T09:10:32;47.00;;;19.60;;
13834;SDS011;6988;52.614;13.500;2022-12-18T09:15:25;43.53;;;19.73;;
13834;SDS011;6988;52.614;13.500;2022-12-18T09:20:17;49.20;;;21.20;;
13834;SDS011;6988;52.614;13.500;2022-12-18T09:25:09;49.23;;;21.13;;
13834;SDS011;6988;52.614;13.500;2022-12-18T09:30:03;49.33;;;20.67;;
13834;SDS011;6988;52.614;13.500;2022-12-18T09:34:56;50.93;;;21.30;;
13834;SDS011;6988;52.614;13.500;2022-12-18T09:39:48;50.63;;;20.93;;
13834;SDS011;6988;52.614;13.500;2022-12-18T09:44:41;46.07;;;20.13;;
13834;SDS011;6988;52.614;13.500;2022-12-18T09:49:42;52.63;;;21.07;;
13834;SDS011;6988;52.614;13.500;2022-12-18T09:54:38;57.97;;;21.40;;
13834;SDS011;6988;52.614;13.500;2022-12-18T09:59:36;57.67;;;22.50;;
13834;SDS011;6988;52.614;13.500;2022-12-18T10:04:29;56.67;;;22.47;;
13834;SDS011;6988;52.614;13.500;2022-12-18T10:09:27;61.70;;;23.13;;
13834;SDS011;6988;52.614;13.500;2022-12-18T10:14:29;63.23;;;25.20;;
13834;SDS011;6988;52.614;13.500;2022-12-18T10:19:39;69.43;;;24.57;;
13834;SDS011;6988;52.614;13.500;2022-12-18T10:24:42;56.73;;;22.77;;
13834;SDS011;6988;52.614;13.500;2022-12-18T10:29:45;68.80;;;25.10;;
13834;SDS011;6988;52.614;13.500;2022-12-18T10:34:37;71.50;;;25.63;;
13834;SDS011;6988;52.614;13.500;2022-12-18T10:39:29;76.47;;;27.03;;
13834;SDS011;6988;52.614;13.500;2022-12-18T10:44:23;69.47;;;25.73;;
13834;SDS011;6988;52.614;13.500;2022-12-18T10:49:18;61.17;;;23.77;;
13834;SDS011;6988;52.614;13.500;2022-12-18T10:54:15;76.03;;;25.53;;
13834;SDS011;6988;52.614;13.500;2022-12-18T10:59:11;80.00;;;35.13;;
13834;SDS011;6988;52.614;13.500;2022-12-18T11:04:08;78.17;;;33.70;;
13834;SDS011;6988;52.614;13.500;2022-12-18T11:09:01;70.03;;;33.13;;
13834;SDS011;6988;52.614;13.500;2022-12-18T11:13:58;71.20;;;32.43;;
13834;SDS011;6988;52.614;13.500;2022-12-18T11:18:54;59.67;;;24.47;;
13834;SDS011;6988;52.614;13.500;2022-12-18T11:24:08;63.00;;;31.03;;
13834;SDS011;6988;52.614;13.500;2022-12-18T11:29:16;64.13;;;31.20;;
13834;SDS011;6988;52.614;13.500;2022-12-18T11:34:16;61.63;;;29.73;;
13834;SDS011;6988;52.614;13.500;2022-12-18T11:39:19;58.87;;;29.83;;
13834;SDS011;6988;52.614;13.500;2022-12-18T11:44:22;52.53;;;28.03;;
13834;SDS011;6988;52.614;13.500;2022-12-18T11:49:20;50.13;;;27.30;;
13834;SDS011;6988;52.614;13.500;2022-12-18T11:54:19;38.03;;;17.57;;
13834;SDS011;6988;52.614;13.500;2022-12-18T11:59:14;40.33;;;18.73;;
13834;SDS011;6988;52.614;13.500;2022-12-18T12:04:28;43.13;;;19.73;;
13834;SDS011;6988;52.614;13.500;2022-12-18T12:09:41;46.13;;;20.17;;
13834;SDS011;6988;52.614;13.500;2022-12-18T12:14:50;40.77;;;19.80;;
13834;SDS011;6988;52.614;13.500;2022-12-18T12:19:54;42.13;;;19.20;;
13834;SDS011;6988;52.614;13.500;2022-12-18T12:25:04;43.03;;;25.20;;
13834;SDS011;6988;52.614;13.500;2022-12-18T12:30:11;41.30;;;18.17;;
13834;SDS011;6988;52.614;13.500;2022-12-18T12:35:14;38.43;;;18.50;;
13834;SDS011;6988;52.614;13.500;2022-12-18T12:40:22;39.97;;;19.00;;
13834;SDS011;6988;52.614;13.500;2022-12-18T12:45:22;44.27;;;25.20;;
13834;SDS011;6988;52.614;13.500;2022-12-18T12:50:25;46.63;;;26.40;;
13834;SDS011;6988;52.614;13.500;2022-12-18T12:55:19;42.57;;;25.27;;
13834;SDS011;6988;52.614;13.500;2022-12-18T13:00:18;41.90;;;24.70;;
13834;SDS011;6988;52.614;13.500;2022-12-18T13:05:15;39.37;;;23.63;;
13834;SDS011;6988;52.614;13.500;2022-12-18T13:10:26;38.87;;;23.00;;
13834;SDS011;6988;52.614;13.500;2022-12-18T13:15:32;38.23;;;22.73;;
13834;SDS011;6988;52.614;13.500;2022-12-18T13:20:32;41.47;;;23.40;;
13834;SDS011;6988;52.614;13.500;2022-12-18T13:25:32;36.87;;;23.60;;
13834;SDS011;6988;52.614;13.500;2022-12-18T13:30:41;36.10;;;21.67;;
13834;SDS011;6988;52.614;13.500;2022-12-18T13:35:37;38.83;;;23.17;;
13834;SDS011;6988;52.614;13.500;2022-12-18T13:45:58;42.17;;;25.40;;
13834;SDS011;6988;52.614;13.500;2022-12-18T13:50:58;43.40;;;25.57;;
13834;SDS011;6988;52.614;13.500;2022-12-18T13:55:54;41.30;;;26.33;;
13834;SDS011;6988;52.614;13.500;2022-12-18T14:00:48;38.03;;;25.73;;
13834;SDS011;6988;52.614;13.500;2022-12-18T14:05:39;39.33;;;24.93;;
13834;SDS011;6988;52.614;13.500;2022-12-18T14:10:35;38.67;;;24.93;;
13834;SDS011;6988;52.614;13.500;2022-12-18T14:15:32;36.13;;;20.10;;
13834;SDS011;6988;52.614;13.500;2022-12-18T14:20:31;37.90;;;19.63;;
13834;SDS011;6988;52.614;13.500;2022-12-18T14:25:26;37.27;;;19.03;;
13834;SDS011;6988;52.614;13.500;2022-12-18T14:30:23;37.97;;;19.33;;
13834;SDS011;6988;52.614;13.500;2022-12-18T14:35:19;40.57;;;20.60;;
13834;SDS011;6988;52.614;13.500;2022-12-18T14:40:13;38.70;;;20.87;;
13834;SDS011;6988;52.614;13.500;2022-12-18T14:45:31;35.90;;;19.73;;
13834;SDS011;6988;52.614;13.500;2022-12-18T14:50:31;42.60;;;20.93;;
13834;SDS011;6988;52.614;13.500;2022-12-18T14:55:24;42.10;;;21.03;;
13834;SDS011;6988;52.614;13.500;2022-12-18T15:00:18;43.77;;;21.97;;
13834;SDS011;6988;52.614;13.500;2022-12-18T15:05:17;42.20;;;28.50;;
13834;SDS011;6988;52.614;13.500;2022-12-18T15:10:15;35.53;;;23.87;;
13834;SDS011;6988;52.614;13.500;2022-12-18T15:20:40;37.63;;;25.50;;
13834;SDS011;6988;52.614;13.500;2022-12-18T15:25:36;35.53;;;24.93;;
13834;SDS011;6988;52.614;13.500;2022-12-18T15:30:28;36.63;;;24.83;;
13834;SDS011;6988;52.614;13.500;2022-12-18T15:35:23;32.70;;;18.63;;
13834;SDS011;6988;52.614;13.500;2022-12-18T15:40:16;29.90;;;17.60;;
13834;SDS011;6988;52.614;13.500;2022-12-18T15:45:11;29.07;;;21.63;;
13834;SDS011;6988;52.614;13.500;2022-12-18T15:50:04;30.83;;;21.93;;
13834;SDS011;6988;52.614;13.500;2022-12-18T15:54:58;31.03;;;21.90;;
13834;SDS011;6988;52.614;13.500;2022-12-18T16:00:10;32.87;;;22.73;;
13834;SDS011;6988;52.614;13.500;2022-12-18T16:05:09;37.77;;;25.43;;
13834;SDS011;6988;52.614;13.500;2022-12-18T16:10:09;41.07;;;25.97;;
13834;SDS011;6988;52.614;13.500;2022-12-18T16:15:01;39.87;;;27.43;;
13834;SDS011;6988;52.614;13.500;2022-12-18T16:19:55;36.87;;;25.73;;
13834;SDS011;6988;52.614;13.500;2022-12-18T16:24:47;38.53;;;26.80;;
13834;SDS011;6988;52.614;13.500;2022-12-18T16:29:41;40.60;;;27.20;;
13834;SDS011;6988;52.614;13.500;2022-12-18T16:34:33;39.07;;;26.63;;
13834;SDS011;6988;52.614;13.500;2022-12-18T16:39:25;39.00;;;27.17;;
13834;SDS011;6988;52.614;13.500;2022-12-18T16:44:18;40.13;;;27.23;;
13834;SDS011;6988;52.614;13.500;2022-12-18T16:49:12;43.93;;;29.63;;
13834;SDS011;6988;52.614;13.500;2022-12-18T16:54:05;43.00;;;29.53;;
13834;SDS011;6988;52.614;13.500;2022-12-18T16:58:58;43.23;;;30.00;;
13834;SDS011;6988;52.614;13.500;2022-12-18T17:03:53;40.80;;;28.93;;
13834;SDS011;6988;52.614;13.500;2022-12-18T17:08:53;36.93;;;26.10;;
13834;SDS011;6988;52.614;13.500;2022-12-18T17:13:45;36.83;;;25.53;;
13834;SDS011;6988;52.614;13.500;2022-12-18T17:18:37;39.73;;;26.77;;
13834;SDS011;6988;52.614;13.500;2022-12-18T17:23:29;38.47;;;27.17;;
13834;SDS011;6988;52.614;13.500;2022-12-18T17:28:23;38.03;;;26.93;;
13834;SDS011;6988;52.614;13.500;2022-12-18T17:33:15;39.97;;;27.63;;
13834;SDS011;6988;52.614;13.500;2022-12-18T17:38:09;39.53;;;24.03;;
13834;SDS011;6988;52.614;13.500;2022-12-18T17:43:02;37.47;;;21.77;;
13834;SDS011;6988;52.614;13.500;2022-12-18T17:47:55;42.03;;;29.00;;
13834;SDS011;6988;52.614;13.500;2022-12-18T17:52:47;41.53;;;28.23;;
13834;SDS011;6988;52.614;13.500;2022-12-18T17:57:39;44.53;;;29.77;;
13834;SDS011;6988;52.614;13.500;2022-12-18T18:02:34;40.27;;;27.87;;
13834;SDS011;6988;52.614;13.500;2022-12-18T18:07:27;44.90;;;30.37;;
13834;SDS011;6988;52.614;13.500;2022-12-18T18:12:19;43.57;;;28.30;;
13834;SDS011;6988;52.614;13.500;2022-12-18T18:17:29;45.30;;;30.20;;
13834;SDS011;6988;52.614;13.500;2022-12-18T18:22:21;43.90;;;28.53;;
13834;SDS011;6988;52.614;13.500;2022-12-18T18:27:14;44.87;;;29.73;;
13834;SDS011;6988;52.614;13.500;2022-12-18T18:32:06;46.63;;;30.50;;
13834;SDS011;6988;52.614;13.500;2022-12-18T18:36:58;48.50;;;31.63;;
13834;SDS011;6988;52.614;13.500;2022-12-18T18:41:52;48.77;;;32.27;;
13834;SDS011;6988;52.614;13.500;2022-12-18T18:46:45;46.17;;;30.67;;
13834;SDS011;6988;52.614;13.500;2022-12-18T18:51:37;48.13;;;30.67;;
13834;SDS011;6988;52.614;13.500;2022-12-18T18:56:29;51.37;;;32.33;;
13834;SDS011;6988;52.614;13.500;2022-12-18T19:01:23;50.57;;;25.43;;
13834;SDS011;6988;52.614;13.500;2022-12-18T19:06:18;49.10;;;24.43;;
13834;SDS011;6988;52.614;13.500;2022-12-18T19:11:14;47.47;;;24.17;;
13834;SDS011;6988;52.614;13.500;2022-12-18T19:16:24;52.83;;;25.00;;
13834;SDS011;6988;52.614;13.500;2022-12-18T19:21:21;47.70;;;25.43;;
13834;SDS011;6988;52.614;13.500;2022-12-18T19:26:15;49.13;;;26.37;;
13834;SDS011;6988;52.614;13.500;2022-12-18T19:31:08;53.23;;;25.97;;
13834;SDS011;6988;52.614;13.500;2022-12-18T19:36:08;51.27;;;24.63;;
13834;SDS011;6988;52.614;13.500;2022-12-18T19:41:06;52.63;;;26.53;;
13834;SDS011;6988;52.614;13.500;2022-12-18T19:45:59;49.67;;;25.90;;
13834;SDS011;6988;52.614;13.500;2022-12-18T19:50:50;57.60;;;26.07;;
13834;SDS011;6988;52.614;13.500;2022-12-18T19:55:43;50.20;;;25.87;;
13834;SDS011;6988;52.614;13.500;2022-12-18T20:00:36;48.70;;;24.10;;
13834;SDS011;6988;52.614;13.500;2022-12-18T20:05:29;54.87;;;25.27;;
13834;SDS011;6988;52.614;13.500;2022-12-18T20:10:20;49.63;;;25.40;;
13834;SDS011;6988;52.614;13.500;2022-12-18T20:15:14;50.33;;;25.30;;
13834;SDS011;6988;52.614;13.500;2022-12-18T20:20:08;50.57;;;24.67;;
13834;SDS011;6988;52.614;13.500;2022-12-18T20:25:01;50.13;;;24.83;;
13834;SDS011;6988;52.614;13.500;2022-12-18T20:29:53;55.43;;;25.73;;
13834;SDS011;6988;52.614;13.500;2022-12-18T20:34:45;52.13;;;25.43;;
13834;SDS011;6988;52.614;13.500;2022-12-18T20:39:38;51.20;;;25.90;;
13834;SDS011;6988;52.614;13.500;2022-12-18T20:44:31;51.27;;;25.67;;
13834;SDS011;6988;52.614;13.500;2022-12-18T20:49:23;52.73;;;25.63;;
13834;SDS011;6988;52.614;13.500;2022-12-18T20:54:16;51.23;;;25.57;;
13834;SDS011;6988;52.614;13.500;2022-12-18T20:59:10;48.33;;;25.57;;
13834;SDS011;6988;52.614;13.500;2022-12-18T21:04:02;52.60;;;25.87;;
13834;SDS011;6988;52.614;13.500;2022-12-18T21:08:54;47.83;;;25.00;;
13834;SDS011;6988;52.614;13.500;2022-12-18T21:13:46;52.57;;;25.80;;
13834;SDS011;6988;52.614;13.500;2022-12-18T21:18:39;50.17;;;25.40;;
13834;SDS011;6988;52.614;13.500;2022-12-18T21:23:31;48.87;;;25.60;;
13834;SDS011;6988;52.614;13.500;2022-12-18T21:28:24;46.63;;;25.07;;
13834;SDS011;6988;52.614;13.500;2022-12-18T21:33:16;50.07;;;25.10;;
13834;SDS011;6988;52.614;13.500;2022-12-18T21:38:09;51.70;;;24.80;;
13834;SDS011;6988;52.614;13.500;2022-12-18T21:43:03;52.57;;;24.87;;
13834;SDS011;6988;52.614;13.500;2022-12-18T21:48:13;50.77;;;31.60;;
13834;SDS011;6988;52.614;13.500;2022-12-18T21:53:05;54.37;;;34.10;;
13834;SDS011;6988;52.614;13.500;2022-12-18T21:57:58;50.97;;;32.23;;
13834;SDS011;6988;52.614;13.500;2022-12-18T22:02:50;47.50;;;31.37;;
13834;SDS011;6988;52.614;13.500;2022-12-18T22:07:42;53.17;;;26.97;;
13834;SDS011;6988;52.614;13.500;2022-12-18T22:12:34;52.83;;;32.07;;
13834;SDS011;6988;52.614;13.500;2022-12-18T22:17:27;47.57;;;32.20;;
13834;SDS011;6988;52.614;13.500;2022-12-18T22:22:19;49.27;;;32.47;;
13834;SDS011;6988;52.614;13.500;2022-12-18T22:27:13;49.77;;;31.27;;
13834;SDS011;6988;52.614;13.500;2022-12-18T22:32:05;50.43;;;32.40;;
13834;SDS011;6988;52.614;13.500;2022-12-18T22:37:00;49.10;;;31.93;;
13834;SDS011;6988;52.614;13.500;2022-12-18T22:41:52;51.53;;;32.37;;
13834;SDS011;6988;52.614;13.500;2022-12-18T23:04:41;53.70;;;24.80;;
13834;SDS011;6988;52.614;13.500;2022-12-18T23:09:34;55.03;;;25.57;;
13834;SDS011;6988;52.614;13.500;2022-12-18T23:14:26;48.70;;;24.90;;
13834;SDS011;6988;52.614;13.500;2022-12-18T23:19:19;45.07;;;24.33;;
13834;SDS011;6988;52.614;13.500;2022-12-18T23:24:13;47.07;;;25.03;;
13834;SDS011;6988;52.614;13.500;2022-12-18T23:29:05;50.23;;;25.73;;
13834;SDS011;6988;52.614;13.500;2022-12-18T23:33:58;50.23;;;25.60;;
13834;SDS011;6988;52.614;13.500;2022-12-18T23:38:52;48.03;;;25.23;;
13834;SDS011;6988;52.614;13.500;2022-12-18T23:43:47;49.83;;;24.57;;
13834;SDS011;6988;52.614;13.500;2022-12-18T23:48:39;47.33;;;24.10;;
13834;SDS011;6988;52.614;13.500;2022-12-18T23:53:31;47.33;;;24.27;;
13834;SDS011;6988;52.614;13.500;2022-12-18T23:58:23;51.23;;;32.87;;
